Time,TemperatureF,DewpointF,PressureIn,WindDirection,WindDirectionDegrees,WindSpeedMPH,WindSpeedGustMPH,Humidity,HourlyPrecipIn,Conditions,Clouds,dailyrainin,SolarRadiationWatts/m^2,SoftwareType,DateUTC
2013-05-21 00:02:00,52.5,46.5,29.83,SW,228,0.0,2.0,80,0.00,,---,0.00,0.00,VWS V14.01,2013-05-21 07:02:00,
2013-05-21 00:07:00,52.5,46.5,29.82,SW,228,0.0,2.0,80,0.00,,---,0.00,0.00,VWS V14.01,2013-05-21 07:07:00,
2013-05-21 00:12:00,52.4,46.4,29.82,SW,226,0.0,2.0,80,0.00,,---,0.00,0.00,VWS V14.01,2013-05-21 07:12:00,
2013-05-21 00:17:00,52.4,46.4,29.82,West,265,0.0,2.0,80,0.00,,---,0.00,0.00,VWS V14.01,2013-05-21 07:17:00,
2013-05-21 00:22:00,52.4,46.4,29.82,West,264,0.0,2.0,80,0.00,,---,0.00,0.00,VWS V14.01,2013-05-21 07:22:00,
2013-05-21 00:27:00,52.4,46.4,29.82,West,264,1.0,2.0,80,0.00,,---,0.00,0.00,VWS V14.01,2013-05-21 07:27:00,
2013-05-21 00:32:00,52.4,46.8,29.82,WNW,286,0.0,3.0,81,0.00,,---,0.00,0.00,VWS V14.01,2013-05-21 07:32:00,
2013-05-21 00:37:00,52.4,46.8,29.81,NW,315,1.0,4.0,81,0.00,,---,0.00,0.00,VWS V14.01,2013-05-21 07:37:00,
2013-05-21 00:42:00,52.3,46.7,29.82,WSW,253,4.0,4.0,81,0.00,,---,0.00,0.00,VWS V14.01,2013-05-21 07:42:00,
2013-05-21 00:47:00,52.3,46.7,29.82,WNW,288,0.0,8.0,81,0.00,,---,0.00,0.00,VWS V14.01,2013-05-21 07:47:00,
2013-05-21 00:52:00,52.2,46.5,29.82,West,281,0.0,8.0,81,0.00,,---,0.00,0.00,VWS V14.01,2013-05-21 07:52:00,
2013-05-21 00:57:00,52.1,46.5,29.82,WSW,250,0.0,4.0,81,0.00,,---,0.00,0.00,VWS V14.01,2013-05-21 07:57:00,
2013-05-21 01:02:00,51.9,46.3,29.82,WSW,254,0.0,4.0,81,0.00,,---,0.00,0.00,VWS V14.01,2013-05-21 08:02:00,
2013-05-21 01:07:00,51.8,46.2,29.82,WSW,255,0.0,3.0,81,0.00,,---,0.00,0.00,VWS V14.01,2013-05-21 08:07:00,
2013-05-21 01:12:00,51.7,46.1,29.82,West,263,3.0,3.0,81,0.00,,---,0.00,0.00,VWS V14.01,2013-05-21 08:12:00,
2013-05-21 01:17:00,51.6,46.0,29.82,West,265,0.0,3.0,81,0.00,,---,0.00,0.00,VWS V14.01,2013-05-21 08:17:00,
2013-05-21 01:22:00,51.5,45.9,29.81,West,266,0.0,2.0,81,0.00,,---,0.00,0.00,VWS V14.01,2013-05-21 08:22:00,
2013-05-21 01:27:00,51.4,45.8,29.81,West,266,0.0,2.0,81,0.00,,---,0.00,0.00,VWS V14.01,2013-05-21 08:27:00,
2013-05-21 01:32:00,51.3,45.7,29.81,West,261,2.0,3.0,81,0.00,,---,0.00,0.00,VWS V14.01,2013-05-21 08:32:00,
2013-05-21 01:37:00,51.2,45.6,29.81,WNW,292,0.0,3.0,81,0.00,,---,0.00,0.00,VWS V14.01,2013-05-21 08:37:00,
2013-05-21 01:42:00,51.2,45.6,29.81,WNW,292,0.0,3.0,81,0.00,,---,0.00,0.00,VWS V14.01,2013-05-21 08:42:00,
2013-05-21 01:47:00,51.1,45.5,29.81,WNW,292,0.0,2.0,81,0.00,,---,0.00,0.00,VWS V14.01,2013-05-21 08:47:00,
2013-05-21 01:52:00,51.0,45.7,29.81,WNW,292,0.0,2.0,82,0.00,,---,0.00,0.00,VWS V14.01,2013-05-21 08:52:00,
2013-05-21 01:57:00,50.9,45.6,29.81,WNW,292,0.0,2.0,82,0.00,,---,0.00,0.00,VWS V14.01,2013-05-21 08:57:00,
2013-05-21 02:02:00,50.8,45.5,29.81,WNW,292,0.0,1.0,82,0.00,,---,0.00,0.00,VWS V14.01,2013-05-21 09:02:00,
2013-05-21 02:07:00,50.8,45.5,29.81,WNW,292,0.0,1.0,82,0.00,,---,0.00,0.00,VWS V14.01,2013-05-21 09:07:00,
2013-05-21 02:12:00,50.7,45.4,29.81,WNW,292,0.0,0.0,82,0.00,,---,0.00,0.00,VWS V14.01,2013-05-21 09:12:00,
2013-05-21 02:17:00,50.7,45.7,29.80,WNW,292,0.0,0.0,83,0.00,,---,0.00,0.00,VWS V14.01,2013-05-21 09:17:00,
2013-05-21 02:22:00,50.7,45.7,29.80,WNW,292,0.0,0.0,83,0.00,,---,0.00,0.00,VWS V14.01,2013-05-21 09:22:00,
2013-05-21 02:27:00,50.6,45.6,29.81,WNW,292,0.0,1.0,83,0.00,,---,0.00,0.00,VWS V14.01,2013-05-21 09:27:00,
2013-05-21 02:32:00,50.6,45.6,29.81,WNW,292,0.0,1.0,83,0.00,,---,0.00,0.00,VWS V14.01,2013-05-21 09:32:00,
2013-05-21 02:37:00,50.5,45.5,29.81,WNW,292,0.0,0.0,83,0.00,,---,0.00,0.00,VWS V14.01,2013-05-21 09:37:00,
2013-05-21 02:42:00,50.5,45.8,29.80,WNW,292,0.0,1.0,84,0.00,,---,0.00,0.00,VWS V14.01,2013-05-21 09:42:00,
2013-05-21 02:47:00,50.5,45.8,29.80,WNW,288,2.0,5.0,84,0.00,,---,0.00,0.00,VWS V14.01,2013-05-21 09:47:00,
2013-05-21 02:52:00,50.5,45.8,29.80,WNW,302,0.0,5.0,84,0.00,,---,0.00,0.00,VWS V14.01,2013-05-21 09:52:00,
2013-05-21 02:57:00,50.4,45.8,29.79,WNW,298,0.0,5.0,84,0.00,,---,0.00,0.00,VWS V14.01,2013-05-21 09:57:00,
2013-05-21 03:02:00,50.2,45.6,29.79,West,273,0.0,4.0,84,0.00,,---,0.00,0.00,VWS V14.01,2013-05-21 10:02:00,
2013-05-21 03:07:00,50.0,45.7,29.79,West,269,1.0,3.0,85,0.00,,---,0.00,0.00,VWS V14.01,2013-05-21 10:07:00,
2013-05-21 03:12:00,49.7,45.4,29.80,West,273,0.0,3.0,85,0.01,,---,0.01,0.00,VWS V14.01,2013-05-21 10:12:00,
2013-05-21 03:17:00,49.6,45.6,29.80,WNW,296,0.0,3.0,86,0.01,,---,0.01,0.00,VWS V14.01,2013-05-21 10:17:00,
2013-05-21 03:22:00,49.4,45.4,29.79,West,281,3.0,4.0,86,0.01,,---,0.01,0.00,VWS V14.01,2013-05-21 10:22:00,
2013-05-21 03:27:00,49.2,45.5,29.79,WNW,299,1.0,4.0,87,0.01,,---,0.01,0.00,VWS V14.01,2013-05-21 10:27:00,
2013-05-21 03:32:00,49.1,45.4,29.79,West,271,0.0,4.0,87,0.01,,---,0.01,0.00,VWS V14.01,2013-05-21 10:32:00,
2013-05-21 03:38:00,48.9,45.2,29.79,West,271,0.0,3.0,87,0.01,,---,0.01,0.00,VWS V14.01,2013-05-21 10:38:00,
2013-05-21 03:43:00,48.7,45.0,29.79,West,271,0.0,0.0,87,0.01,,---,0.01,0.00,VWS V14.01,2013-05-21 10:43:00,
2013-05-21 03:48:00,48.6,44.9,29.78,WNW,286,1.0,3.0,87,0.01,,---,0.01,0.00,VWS V14.01,2013-05-21 10:48:00,
2013-05-21 03:53:00,48.5,45.1,29.78,NW,312,0.0,3.0,88,0.01,,---,0.01,0.00,VWS V14.01,2013-05-21 10:53:00,
2013-05-21 03:58:00,48.4,45.3,29.79,NW,312,0.0,1.0,89,0.01,,---,0.01,0.00,VWS V14.01,2013-05-21 10:58:00,
2013-05-21 04:03:00,48.3,45.2,29.79,NW,312,0.0,0.0,89,0.01,,---,0.01,0.00,VWS V14.01,2013-05-21 11:03:00,
2013-05-21 04:08:00,48.2,45.1,29.79,SSW,204,0.0,2.0,89,0.01,,---,0.01,0.00,VWS V14.01,2013-05-21 11:08:00,
2013-05-21 04:13:00,48.1,45.3,29.79,SSW,204,0.0,0.0,90,0.00,,---,0.01,0.00,VWS V14.01,2013-05-21 11:13:00,
2013-05-21 04:18:00,48.0,45.2,29.79,SW,215,0.0,2.0,90,0.00,,---,0.01,0.00,VWS V14.01,2013-05-21 11:18:00,
2013-05-21 04:23:00,48.0,45.2,29.79,West,263,1.0,2.0,90,0.00,,---,0.01,0.00,VWS V14.01,2013-05-21 11:23:00,
2013-05-21 04:28:00,48.0,45.5,29.78,West,259,1.0,4.0,91,0.01,,---,0.02,0.00,VWS V14.01,2013-05-21 11:28:00,
2013-05-21 04:33:00,48.0,45.5,29.79,West,268,0.0,5.0,91,0.01,,---,0.02,0.00,VWS V14.01,2013-05-21 11:33:00,
2013-05-21 04:38:00,47.8,45.3,29.78,WNW,290,2.0,4.0,91,0.01,,---,0.02,0.00,VWS V14.01,2013-05-21 11:38:00,
2013-05-21 04:43:00,47.8,45.3,29.78,WNW,291,2.0,5.0,91,0.02,,---,0.03,0.00,VWS V14.01,2013-05-21 11:43:00,
2013-05-21 04:48:00,47.6,45.1,29.78,West,261,4.0,7.0,91,0.03,,---,0.04,0.00,VWS V14.01,2013-05-21 11:48:00,
2013-05-21 04:53:00,47.3,44.8,29.78,West,268,0.0,7.0,91,0.03,,---,0.04,0.00,VWS V14.01,2013-05-21 11:53:00,
2013-05-21 04:58:00,47.1,44.6,29.79,West,279,2.0,3.0,91,0.03,,---,0.04,0.00,VWS V14.01,2013-05-21 11:58:00,
2013-05-21 05:03:00,46.9,44.4,29.79,SSW,212,0.0,4.0,91,0.04,,---,0.05,0.00,VWS V14.01,2013-05-21 12:03:00,
2013-05-21 05:08:00,46.7,44.5,29.79,NW,309,3.0,5.0,92,0.04,,---,0.05,0.00,VWS V14.01,2013-05-21 12:08:00,
2013-05-21 05:13:00,46.5,44.3,29.79,West,279,3.0,5.0,92,0.04,,---,0.05,0.00,VWS V14.01,2013-05-21 12:13:00,
2013-05-21 05:18:00,46.3,44.1,29.79,South,169,0.0,7.0,92,0.05,,---,0.06,0.00,VWS V14.01,2013-05-21 12:18:00,
2013-05-21 05:23:00,46.1,43.9,29.78,WNW,290,0.0,6.0,92,0.06,,---,0.07,0.00,VWS V14.01,2013-05-21 12:23:00,
2013-05-21 05:28:00,46.1,43.9,29.78,SW,226,0.0,8.0,92,0.05,,---,0.07,0.00,VWS V14.01,2013-05-21 12:28:00,
2013-05-21 05:33:00,46.0,43.8,29.78,SSW,212,2.0,8.0,92,0.06,,---,0.08,0.00,VWS V14.01,2013-05-21 12:33:00,
2013-05-21 05:38:00,45.8,43.6,29.78,WSW,254,0.0,3.0,92,0.07,,---,0.09,0.00,VWS V14.01,2013-05-21 12:38:00,
2013-05-21 05:43:00,45.7,43.8,29.78,South,170,0.0,3.0,93,0.07,,---,0.10,0.00,VWS V14.01,2013-05-21 12:43:00,
2013-05-21 05:48:00,45.6,43.7,29.78,South,170,0.0,2.0,93,0.08,,---,0.11,0.00,VWS V14.01,2013-05-21 12:48:00,
2013-05-21 05:53:00,45.6,43.7,29.78,South,170,0.0,1.0,93,0.08,,---,0.12,0.00,VWS V14.01,2013-05-21 12:53:00,
2013-05-21 05:58:00,45.6,43.7,29.78,South,170,0.0,2.0,93,0.08,,---,0.12,0.00,VWS V14.01,2013-05-21 12:58:00,
2013-05-21 06:03:00,45.6,43.7,29.78,South,170,0.0,2.0,93,0.08,,---,0.13,0.00,VWS V14.01,2013-05-21 13:03:00,
2013-05-21 06:08:00,45.7,44.1,29.78,South,170,0.0,1.0,94,0.09,,---,0.14,0.00,VWS V14.01,2013-05-21 13:08:00,
2013-05-21 06:13:00,45.6,44.0,29.77,SSE,157,0.0,2.0,94,0.10,,---,0.15,5.00,VWS V14.01,2013-05-21 13:13:00,
2013-05-21 06:18:00,45.5,43.6,29.77,SSE,158,0.0,2.0,93,0.09,,---,0.15,9.00,VWS V14.01,2013-05-21 13:18:00,
2013-05-21 06:23:00,45.4,43.5,29.77,SW,226,0.0,5.0,93,0.10,,---,0.16,5.00,VWS V14.01,2013-05-21 13:23:00,
2013-05-21 06:28:00,45.3,43.7,29.78,SSW,207,0.0,6.0,94,0.10,,---,0.17,5.00,VWS V14.01,2013-05-21 13:28:00,
2013-05-21 06:33:00,45.2,43.6,29.77,SE,137,2.0,6.0,94,0.09,,---,0.17,9.00,VWS V14.01,2013-05-21 13:33:00,
2013-05-21 06:38:00,45.1,43.5,29.77,WSW,239,3.0,5.0,94,0.08,,---,0.17,12.00,VWS V14.01,2013-05-21 13:38:00,
2013-05-21 06:43:00,45.1,43.5,29.77,SSE,154,0.0,5.0,94,0.08,,---,0.18,9.00,VWS V14.01,2013-05-21 13:43:00,
2013-05-21 06:48:00,45.0,43.4,29.77,West,269,4.0,5.0,94,0.07,,---,0.18,11.00,VWS V14.01,2013-05-21 13:48:00,
2013-05-21 06:53:00,44.9,43.3,29.77,West,265,3.0,5.0,94,0.07,,---,0.19,14.00,VWS V14.01,2013-05-21 13:53:00,
2013-05-21 06:58:00,44.8,43.2,29.77,SSE,150,2.0,8.0,94,0.07,,---,0.19,18.00,VWS V14.01,2013-05-21 13:58:00,
2013-05-21 07:03:00,44.7,43.1,29.77,West,259,0.0,8.0,94,0.07,,---,0.20,19.00,VWS V14.01,2013-05-21 14:03:00,
2013-05-21 07:08:00,44.7,43.1,29.77,SSW,213,1.0,5.0,94,0.07,,---,0.21,19.00,VWS V14.01,2013-05-21 14:08:00,
2013-05-21 07:13:00,44.6,43.0,29.77,WSW,248,0.0,5.0,94,0.06,,---,0.21,19.00,VWS V14.01,2013-05-21 14:13:00,
2013-05-21 07:18:00,44.7,43.1,29.77,SSW,210,1.0,4.0,94,0.07,,---,0.22,19.00,VWS V14.01,2013-05-21 14:18:00,
2013-05-21 07:23:00,44.7,43.1,29.76,WSW,240,4.0,8.0,94,0.07,,---,0.23,21.00,VWS V14.01,2013-05-21 14:23:00,
2013-05-21 07:28:00,44.7,43.1,29.76,West,261,0.0,8.0,94,0.06,,---,0.23,30.00,VWS V14.01,2013-05-21 14:28:00,
2013-05-21 07:33:00,44.7,43.1,29.76,SE,134,1.0,4.0,94,0.07,,---,0.24,28.00,VWS V14.01,2013-05-21 14:33:00,
2013-05-21 07:38:00,44.6,43.0,29.76,SSE,163,5.0,5.0,94,0.08,,---,0.25,39.00,VWS V14.01,2013-05-21 14:38:00,
2013-05-21 07:43:00,44.6,43.0,29.75,SW,236,0.0,5.0,94,0.07,,---,0.25,56.00,VWS V14.01,2013-05-21 14:43:00,
2013-05-21 07:48:00,44.7,43.1,29.75,SE,125,0.0,2.0,94,0.07,,---,0.25,51.00,VWS V14.01,2013-05-21 14:48:00,
2013-05-21 07:53:00,44.8,43.2,29.76,SW,228,0.0,4.0,94,0.07,,---,0.26,42.00,VWS V14.01,2013-05-21 14:53:00,
2013-05-21 07:58:00,44.8,43.2,29.75,East,98,0.0,4.0,94,0.07,,---,0.26,39.00,VWS V14.01,2013-05-21 14:58:00,
2013-05-21 08:03:00,44.9,43.3,29.75,SW,221,0.0,2.0,94,0.06,,---,0.26,23.00,VWS V14.01,2013-05-21 15:03:00,
2013-05-21 08:08:00,44.9,43.3,29.75,WSW,238,0.0,2.0,94,0.05,,---,0.26,21.00,VWS V14.01,2013-05-21 15:08:00,
2013-05-21 08:13:00,45.0,43.4,29.76,WSW,238,0.0,2.0,94,0.05,,---,0.26,19.00,VWS V14.01,2013-05-21 15:13:00,
2013-05-21 08:18:00,45.0,43.4,29.76,SSW,213,0.0,3.0,94,0.04,,---,0.26,25.00,VWS V14.01,2013-05-21 15:18:00,
2013-05-21 08:23:00,45.0,43.4,29.75,SW,218,3.0,4.0,94,0.04,,---,0.26,37.00,VWS V14.01,2013-05-21 15:23:00,
2013-05-21 08:28:00,45.0,43.4,29.75,West,279,1.0,7.0,94,0.03,,---,0.26,53.00,VWS V14.01,2013-05-21 15:28:00,
2013-05-21 08:33:00,45.1,43.5,29.75,West,271,0.0,3.0,94,0.02,,---,0.26,70.00,VWS V14.01,2013-05-21 15:33:00,
2013-05-21 08:38:00,45.3,43.7,29.75,West,271,0.0,2.0,94,0.02,,---,0.26,51.00,VWS V14.01,2013-05-21 15:38:00,
2013-05-21 08:43:00,45.4,43.8,29.75,SW,225,1.0,2.0,94,0.01,,---,0.26,44.00,VWS V14.01,2013-05-21 15:43:00,
2013-05-21 08:48:00,45.4,43.8,29.75,SW,225,0.0,1.0,94,0.01,,---,0.26,37.00,VWS V14.01,2013-05-21 15:48:00,
2013-05-21 08:53:00,45.4,43.8,29.75,SW,225,0.0,0.0,94,0.00,,---,0.26,21.00,VWS V14.01,2013-05-21 15:53:00,
2013-05-21 08:58:00,45.6,44.0,29.75,SW,225,0.0,0.0,94,0.00,,---,0.26,19.00,VWS V14.01,2013-05-21 15:58:00,
2013-05-21 09:03:00,45.7,44.1,29.75,SW,225,0.0,0.0,94,0.00,,---,0.26,23.00,VWS V14.01,2013-05-21 16:03:00,
2013-05-21 09:08:00,45.6,44.0,29.75,WSW,242,0.0,1.0,94,0.00,,---,0.26,30.00,VWS V14.01,2013-05-21 16:08:00,
2013-05-21 09:13:00,45.5,43.9,29.75,SSW,196,0.0,5.0,94,0.00,,---,0.26,35.00,VWS V14.01,2013-05-21 16:13:00,
2013-05-21 09:18:00,45.4,43.5,29.75,West,271,0.0,5.0,93,0.00,,---,0.26,53.00,VWS V14.01,2013-05-21 16:18:00,
2013-05-21 09:23:00,45.4,43.8,29.74,SSE,164,0.0,4.0,94,0.00,,---,0.26,67.00,VWS V14.01,2013-05-21 16:23:00,
2013-05-21 09:28:00,45.6,44.0,29.74,South,181,2.0,4.0,94,0.00,,---,0.26,63.00,VWS V14.01,2013-05-21 16:28:00,
2013-05-21 09:33:00,45.6,44.0,29.74,SSW,211,0.0,2.0,94,0.00,,---,0.26,74.00,VWS V14.01,2013-05-21 16:33:00,
2013-05-21 09:38:00,45.8,44.2,29.74,SSW,211,0.0,0.0,94,0.00,,---,0.26,81.00,VWS V14.01,2013-05-21 16:38:00,
2013-05-21 09:43:00,46.0,44.4,29.74,SSW,211,0.0,0.0,94,0.00,,---,0.26,77.00,VWS V14.01,2013-05-21 16:43:00,
2013-05-21 09:49:00,46.1,44.5,29.74,ESE,116,0.0,2.0,94,0.00,,---,0.26,53.00,VWS V14.01,2013-05-21 16:49:00,
2013-05-21 09:54:00,46.2,44.6,29.74,ESE,117,0.0,2.0,94,0.00,,---,0.26,69.00,VWS V14.01,2013-05-21 16:54:00,
2013-05-21 09:59:00,46.3,44.7,29.74,ESE,117,0.0,1.0,94,0.00,,---,0.26,95.00,VWS V14.01,2013-05-21 16:59:00,
2013-05-21 10:04:00,46.5,44.9,29.74,ESE,117,0.0,0.0,94,0.00,,---,0.26,107.00,VWS V14.01,2013-05-21 17:04:00,
2013-05-21 10:09:00,46.7,45.1,29.74,ESE,114,0.0,2.0,94,0.00,,---,0.26,77.00,VWS V14.01,2013-05-21 17:09:00,
2013-05-21 10:14:00,46.7,45.1,29.74,ESE,114,0.0,2.0,94,0.00,,---,0.26,63.00,VWS V14.01,2013-05-21 17:14:00,
2013-05-21 10:19:00,46.5,44.3,29.74,SE,140,0.0,4.0,92,0.00,,---,0.26,46.00,VWS V14.01,2013-05-21 17:19:00,
2013-05-21 10:24:00,46.5,44.3,29.74,SE,140,0.0,2.0,92,0.00,,---,0.26,39.00,VWS V14.01,2013-05-21 17:24:00,
2013-05-21 10:29:00,46.6,44.7,29.74,SE,140,0.0,0.0,93,0.00,,---,0.26,40.00,VWS V14.01,2013-05-21 17:29:00,
2013-05-21 10:34:00,46.7,44.8,29.74,NE,42,0.0,2.0,93,0.00,,---,0.26,90.00,VWS V14.01,2013-05-21 17:34:00,
2013-05-21 10:39:00,46.9,45.0,29.74,NE,42,0.0,2.0,93,0.00,,---,0.26,134.00,VWS V14.01,2013-05-21 17:39:00,
2013-05-21 10:44:00,47.1,45.2,29.73,ESE,115,1.0,2.0,93,0.00,,---,0.26,192.00,VWS V14.01,2013-05-21 17:44:00,
2013-05-21 10:49:00,47.5,45.6,29.73,ENE,75,0.0,2.0,93,0.00,,---,0.26,302.00,VWS V14.01,2013-05-21 17:49:00,
2013-05-21 10:54:00,47.7,45.5,29.73,ENE,75,0.0,1.0,92,0.00,,---,0.26,190.00,VWS V14.01,2013-05-21 17:54:00,
2013-05-21 10:59:00,47.9,45.7,29.72,ENE,75,0.0,1.0,92,0.00,,---,0.26,171.00,VWS V14.01,2013-05-21 17:59:00,
2013-05-21 11:04:00,48.1,45.9,29.73,East,81,0.0,2.0,92,0.00,,---,0.26,144.00,VWS V14.01,2013-05-21 18:04:00,
2013-05-21 11:09:00,48.3,46.1,29.73,East,81,0.0,2.0,92,0.00,,---,0.26,127.00,VWS V14.01,2013-05-21 18:09:00,
2013-05-21 11:14:00,48.3,45.8,29.73,East,81,0.0,1.0,91,0.00,,---,0.26,67.00,VWS V14.01,2013-05-21 18:14:00,
2013-05-21 11:19:00,48.3,45.8,29.73,South,169,0.0,4.0,91,0.00,,---,0.26,97.00,VWS V14.01,2013-05-21 18:19:00,
2013-05-21 11:24:00,48.2,45.4,29.73,South,188,0.0,4.0,90,0.00,,---,0.26,125.00,VWS V14.01,2013-05-21 18:24:00,
2013-05-21 11:29:00,48.4,46.2,29.73,South,190,0.0,2.0,92,0.00,,---,0.26,109.00,VWS V14.01,2013-05-21 18:29:00,
2013-05-21 11:34:00,48.7,46.8,29.73,South,191,0.0,1.0,93,0.00,,---,0.26,127.00,VWS V14.01,2013-05-21 18:34:00,
2013-05-21 11:39:00,48.7,46.2,29.73,WSW,244,0.0,2.0,91,0.00,,---,0.26,97.00,VWS V14.01,2013-05-21 18:39:00,
2013-05-21 11:44:00,48.6,45.8,29.73,ESE,123,0.0,2.0,90,0.00,,---,0.26,97.00,VWS V14.01,2013-05-21 18:44:00,
2013-05-21 11:49:00,48.6,46.1,29.72,West,259,0.0,2.0,91,0.00,,---,0.26,93.00,VWS V14.01,2013-05-21 18:49:00,
2013-05-21 11:54:00,48.8,46.3,29.72,West,259,0.0,2.0,91,0.00,,---,0.26,132.00,VWS V14.01,2013-05-21 18:54:00,
2013-05-21 11:59:00,49.2,47.0,29.72,West,259,0.0,1.0,92,0.00,,---,0.26,248.00,VWS V14.01,2013-05-21 18:59:00,
2013-05-21 12:04:00,49.5,46.7,29.73,North,355,0.0,2.0,90,0.00,,---,0.26,267.00,VWS V14.01,2013-05-21 19:04:00,
2013-05-21 12:09:00,49.8,46.7,29.73,North,355,0.0,2.0,89,0.00,,---,0.26,95.00,VWS V14.01,2013-05-21 19:09:00,
2013-05-21 12:14:00,50.1,47.0,29.73,North,355,0.0,2.0,89,0.00,,---,0.26,49.00,VWS V14.01,2013-05-21 19:14:00,
2013-05-21 12:19:00,50.2,47.1,29.73,North,355,0.0,1.0,89,0.00,,---,0.26,69.00,VWS V14.01,2013-05-21 19:19:00,
2013-05-21 12:24:00,50.1,46.7,29.73,North,355,0.0,1.0,88,0.00,,---,0.26,171.00,VWS V14.01,2013-05-21 19:24:00,
2013-05-21 12:29:00,50.1,46.4,29.73,ENE,63,0.0,2.0,87,0.00,,---,0.26,114.00,VWS V14.01,2013-05-21 19:29:00,
2013-05-21 12:34:00,50.1,46.7,29.73,ENE,63,0.0,2.0,88,0.00,,---,0.26,77.00,VWS V14.01,2013-05-21 19:34:00,
2013-05-21 12:39:00,50.0,46.0,29.73,ENE,57,0.0,5.0,86,0.00,,---,0.26,107.00,VWS V14.01,2013-05-21 19:39:00,
2013-05-21 12:44:00,50.0,46.0,29.73,ESE,103,0.0,5.0,86,0.00,,---,0.26,155.00,VWS V14.01,2013-05-21 19:44:00,
2013-05-21 12:49:00,50.1,46.4,29.72,SW,217,1.0,2.0,87,0.00,,---,0.26,244.00,VWS V14.01,2013-05-21 19:49:00,
2013-05-21 12:54:00,50.3,46.3,29.72,SW,215,0.0,2.0,86,0.00,,---,0.26,176.00,VWS V14.01,2013-05-21 19:54:00,
2013-05-21 12:59:00,50.5,46.8,29.73,WSW,254,4.0,5.0,87,0.00,,---,0.26,97.00,VWS V14.01,2013-05-21 19:59:00,
2013-05-21 13:04:00,50.5,46.5,29.73,NNW,331,0.0,4.0,86,0.00,,---,0.26,169.00,VWS V14.01,2013-05-21 20:04:00,
2013-05-21 13:09:00,50.6,46.9,29.73,NNW,331,0.0,2.0,87,0.00,,---,0.26,227.00,VWS V14.01,2013-05-21 20:09:00,
2013-05-21 13:14:00,50.9,47.5,29.73,SW,215,0.0,3.0,88,0.00,,---,0.26,176.00,VWS V14.01,2013-05-21 20:14:00,
2013-05-21 13:19:00,51.0,47.3,29.73,WNW,292,0.0,3.0,87,0.00,,---,0.26,276.00,VWS V14.01,2013-05-21 20:19:00,
2013-05-21 13:24:00,51.2,47.5,29.72,WNW,292,0.0,1.0,87,0.00,,---,0.26,239.00,VWS V14.01,2013-05-21 20:24:00,
2013-05-21 13:29:00,51.3,47.3,29.72,West,266,0.0,2.0,86,0.00,,---,0.26,320.00,VWS V14.01,2013-05-21 20:29:00,
2013-05-21 13:34:00,51.7,48.0,29.72,SW,215,0.0,3.0,87,0.00,,---,0.26,367.00,VWS V14.01,2013-05-21 20:34:00,
2013-05-21 13:39:00,52.1,47.4,29.72,SW,235,3.0,4.0,84,0.00,,---,0.26,350.00,VWS V14.01,2013-05-21 20:39:00,
2013-05-21 13:44:00,52.3,47.6,29.72,NE,48,0.0,6.0,84,0.00,,---,0.26,287.00,VWS V14.01,2013-05-21 20:44:00,
2013-05-21 13:49:00,52.6,47.3,29.71,NE,48,0.0,3.0,82,0.00,,---,0.26,424.00,VWS V14.01,2013-05-21 20:49:00,
2013-05-21 13:54:00,53.3,49.2,29.72,NNW,336,0.0,4.0,86,0.00,,---,0.26,418.00,VWS V14.01,2013-05-21 20:54:00,
2013-05-21 13:59:00,54.1,49.1,29.72,SE,135,1.0,4.0,83,0.00,,---,0.26,436.00,VWS V14.01,2013-05-21 20:59:00,
2013-05-21 14:04:00,54.7,47.3,29.72,South,181,0.0,3.0,76,0.00,,---,0.26,1114.00,VWS V14.01,2013-05-21 21:04:00,
2013-05-21 14:09:00,55.8,50.4,29.72,SW,220,2.0,7.0,82,0.00,,---,0.26,1206.00,VWS V14.01,2013-05-21 21:09:00,
2013-05-21 14:14:00,56.6,48.1,29.72,SSE,165,1.0,7.0,73,0.00,,---,0.26,218.00,VWS V14.01,2013-05-21 21:14:00,
2013-05-21 14:19:00,56.2,48.0,29.71,ESE,109,2.0,2.0,74,0.00,,---,0.26,287.00,VWS V14.01,2013-05-21 21:19:00,
2013-05-21 14:24:00,55.7,47.9,29.71,West,260,3.0,5.0,75,0.00,,---,0.26,190.00,VWS V14.01,2013-05-21 21:24:00,
2013-05-21 14:29:00,55.4,46.2,29.71,SE,144,0.0,4.0,71,0.00,,---,0.26,176.00,VWS V14.01,2013-05-21 21:29:00,
2013-05-21 14:34:00,55.3,48.2,29.71,West,269,0.0,5.0,77,0.00,,---,0.26,216.00,VWS V14.01,2013-05-21 21:34:00,
2013-05-21 14:39:00,55.5,48.1,29.72,SW,236,4.0,5.0,76,0.00,,---,0.26,137.00,VWS V14.01,2013-05-21 21:39:00,
2013-05-21 14:44:00,55.4,46.2,29.72,SW,227,0.0,4.0,71,0.00,,---,0.26,155.00,VWS V14.01,2013-05-21 21:44:00,
2013-05-21 14:49:00,55.1,46.6,29.71,East,91,0.0,4.0,73,0.00,,---,0.26,111.00,VWS V14.01,2013-05-21 21:49:00,
2013-05-21 14:54:00,55.0,46.9,29.71,East,100,0.0,4.0,74,0.00,,---,0.26,158.00,VWS V14.01,2013-05-21 21:54:00,
2013-05-21 14:59:00,55.0,47.6,29.71,East,101,0.0,1.0,76,0.00,,---,0.26,167.00,VWS V14.01,2013-05-21 21:59:00,
2013-05-21 15:04:00,55.0,48.3,29.71,East,101,0.0,2.0,78,0.00,,---,0.26,102.00,VWS V14.01,2013-05-21 22:04:00,
2013-05-21 15:09:00,55.0,46.9,29.71,SE,127,0.0,4.0,74,0.00,,---,0.26,155.00,VWS V14.01,2013-05-21 22:09:00,
2013-05-21 15:14:00,55.0,47.6,29.71,SE,127,0.0,4.0,76,0.00,,---,0.26,330.00,VWS V14.01,2013-05-21 22:14:00,
2013-05-21 15:19:00,55.6,49.2,29.71,SW,236,1.0,2.0,79,0.00,,---,0.26,139.00,VWS V14.01,2013-05-21 22:19:00,
2013-05-21 15:24:00,56.1,48.3,29.71,WNW,288,0.0,4.0,75,0.00,,---,0.26,120.00,VWS V14.01,2013-05-21 22:24:00,
2013-05-21 15:29:00,56.4,46.8,29.71,WNW,288,0.0,4.0,70,0.00,,---,0.26,79.00,VWS V14.01,2013-05-21 22:29:00,
2013-05-21 15:34:00,56.4,48.2,29.71,WNW,303,0.0,3.0,74,0.00,,---,0.26,81.00,VWS V14.01,2013-05-21 22:34:00,
2013-05-21 15:39:00,56.3,48.1,29.71,NW,306,0.0,3.0,74,0.00,,---,0.26,127.00,VWS V14.01,2013-05-21 22:39:00,
2013-05-21 15:44:00,56.3,48.8,29.71,West,269,0.0,3.0,76,0.00,,---,0.26,146.00,VWS V14.01,2013-05-21 22:44:00,
2013-05-21 15:49:00,56.3,48.5,29.71,West,263,0.0,4.0,75,0.00,,---,0.26,116.00,VWS V14.01,2013-05-21 22:49:00,
2013-05-21 15:54:00,56.2,48.0,29.71,West,264,2.0,4.0,74,0.00,,---,0.26,158.00,VWS V14.01,2013-05-21 22:54:00,
2013-05-21 15:59:00,56.1,47.9,29.71,WNW,298,0.0,5.0,74,0.00,,---,0.26,171.00,VWS V14.01,2013-05-21 22:59:00,
2013-05-21 16:04:00,56.3,48.5,29.71,SSW,205,0.0,5.0,75,0.00,,---,0.26,406.00,VWS V14.01,2013-05-21 23:04:00,
2013-05-21 16:09:00,56.5,48.0,29.71,WNW,292,1.0,5.0,73,0.00,,---,0.26,332.00,VWS V14.01,2013-05-21 23:09:00,
2013-05-21 16:14:00,56.8,47.1,29.71,West,281,4.0,9.0,70,0.00,,---,0.26,348.00,VWS V14.01,2013-05-21 23:14:00,
2013-05-21 16:19:00,57.4,49.2,29.71,West,271,4.0,9.0,74,0.00,,---,0.26,348.00,VWS V14.01,2013-05-21 23:19:00,
2013-05-21 16:24:00,58.2,48.8,29.71,NW,313,7.0,7.0,71,0.00,,---,0.26,146.00,VWS V14.01,2013-05-21 23:24:00,
2013-05-21 16:29:00,58.2,47.7,29.70,SW,236,5.0,7.0,68,0.00,,---,0.26,142.00,VWS V14.01,2013-05-21 23:29:00,
2013-05-21 16:34:00,57.9,47.4,29.70,SSE,160,4.0,6.0,68,0.00,,---,0.26,93.00,VWS V14.01,2013-05-21 23:34:00,
2013-05-21 16:39:00,57.1,45.5,29.70,SW,220,2.0,5.0,65,0.00,,---,0.26,100.00,VWS V14.01,2013-05-21 23:39:00,
2013-05-21 16:45:00,56.6,47.7,29.70,West,269,3.0,5.0,72,0.00,,---,0.26,107.00,VWS V14.01,2013-05-21 23:45:00,
2013-05-21 16:50:00,56.3,47.4,29.70,West,261,0.0,5.0,72,0.00,,---,0.26,104.00,VWS V14.01,2013-05-21 23:50:00,
2013-05-21 16:55:00,56.2,47.3,29.71,West,261,1.0,3.0,72,0.00,,---,0.26,320.00,VWS V14.01,2013-05-21 23:55:00,
2013-05-21 17:00:00,56.5,47.2,29.71,SSE,165,1.0,9.0,71,0.00,,---,0.26,677.00,VWS V14.01,2013-05-22 00:00:00,
2013-05-21 17:05:00,56.9,48.3,29.71,North,5,1.0,9.0,73,0.00,,---,0.26,686.00,VWS V14.01,2013-05-22 00:05:00,
2013-05-21 17:10:00,57.3,48.4,29.71,SE,144,5.0,8.0,72,0.00,,---,0.26,401.00,VWS V14.01,2013-05-22 00:10:00,
2013-05-21 17:15:00,57.3,47.2,29.71,WNW,285,6.0,8.0,69,0.00,,---,0.26,181.00,VWS V14.01,2013-05-22 00:15:00,
2013-05-21 17:20:00,56.8,47.1,29.71,South,169,1.0,6.0,70,0.00,,---,0.26,84.00,VWS V14.01,2013-05-22 00:20:00,
2013-05-21 17:25:00,56.3,47.4,29.71,WNW,300,2.0,8.0,72,0.00,,---,0.26,70.00,VWS V14.01,2013-05-22 00:25:00,
2013-05-21 17:30:00,55.8,47.7,29.71,WNW,300,2.0,6.0,74,0.00,,---,0.26,79.00,VWS V14.01,2013-05-22 00:30:00,
2013-05-21 17:35:00,55.5,48.1,29.71,West,279,0.0,5.0,76,0.00,,---,0.26,113.00,VWS V14.01,2013-05-22 00:35:00,
2013-05-21 17:40:00,55.1,47.7,29.71,SSW,209,1.0,5.0,76,0.00,,---,0.26,102.00,VWS V14.01,2013-05-22 00:40:00,
2013-05-21 17:45:00,54.8,48.4,29.71,WSW,242,1.0,4.0,79,0.00,,---,0.26,72.00,VWS V14.01,2013-05-22 00:45:00,
2013-05-21 17:50:00,54.7,48.7,29.71,West,259,0.0,4.0,80,0.00,,---,0.26,40.00,VWS V14.01,2013-05-22 00:50:00,
2013-05-21 17:55:00,54.6,48.6,29.71,South,171,0.0,3.0,80,0.00,,---,0.26,40.00,VWS V14.01,2013-05-22 00:55:00,
2013-05-21 18:00:00,54.4,48.7,29.72,WNW,296,0.0,3.0,81,0.00,,---,0.26,39.00,VWS V14.01,2013-05-22 01:00:00,
2013-05-21 18:05:00,54.1,48.7,29.72,WNW,302,2.0,7.0,82,0.01,,---,0.27,30.00,VWS V14.01,2013-05-22 01:05:00,
2013-05-21 18:10:00,53.6,47.9,29.72,WSW,250,2.0,7.0,81,0.02,,---,0.28,25.00,VWS V14.01,2013-05-22 01:10:00,
2013-05-21 18:15:00,53.0,47.7,29.72,WSW,252,0.0,7.0,82,0.04,,---,0.30,25.00,VWS V14.01,2013-05-22 01:15:00,
2013-05-21 18:20:00,52.5,47.2,29.73,WSW,252,1.0,2.0,82,0.04,,---,0.30,25.00,VWS V14.01,2013-05-22 01:20:00,
2013-05-21 18:25:00,52.1,47.4,29.73,WSW,252,0.0,2.0,84,0.05,,---,0.31,25.00,VWS V14.01,2013-05-22 01:25:00,
2013-05-21 18:30:00,51.7,47.3,29.73,WNW,286,0.0,3.0,85,0.05,,---,0.31,28.00,VWS V14.01,2013-05-22 01:30:00,
2013-05-21 18:35:00,51.5,47.5,29.73,NW,304,0.0,3.0,86,0.06,,---,0.32,19.00,VWS V14.01,2013-05-22 01:35:00,
2013-05-21 18:40:00,51.3,47.6,29.73,NW,304,0.0,0.0,87,0.06,,---,0.32,11.00,VWS V14.01,2013-05-22 01:40:00,
2013-05-21 18:45:00,51.1,47.4,29.73,NW,304,0.0,0.0,87,0.06,,---,0.32,11.00,VWS V14.01,2013-05-22 01:45:00,
2013-05-21 18:50:00,50.9,47.5,29.73,NW,304,0.0,0.0,88,0.06,,---,0.32,18.00,VWS V14.01,2013-05-22 01:50:00,
2013-05-21 18:55:00,50.7,47.6,29.73,NW,304,0.0,0.0,89,0.08,,---,0.34,19.00,VWS V14.01,2013-05-22 01:55:00,
2013-05-21 19:00:00,50.4,47.3,29.73,NW,304,0.0,1.0,89,0.11,,---,0.37,18.00,VWS V14.01,2013-05-22 02:00:00,
2013-05-21 19:05:00,50.2,47.4,29.73,NW,304,0.0,1.0,90,0.10,,---,0.37,25.00,VWS V14.01,2013-05-22 02:05:00,
2013-05-21 19:10:00,50.0,47.2,29.73,NW,304,0.0,1.0,90,0.09,,---,0.37,35.00,VWS V14.01,2013-05-22 02:10:00,
2013-05-21 19:15:00,49.9,47.1,29.73,NW,304,0.0,0.0,90,0.07,,---,0.37,37.00,VWS V14.01,2013-05-22 02:15:00,
2013-05-21 19:20:00,49.9,47.4,29.73,NW,304,0.0,0.0,91,0.07,,---,0.37,37.00,VWS V14.01,2013-05-22 02:20:00,
2013-05-21 19:25:00,50.0,47.5,29.74,NW,304,0.0,0.0,91,0.06,,---,0.37,44.00,VWS V14.01,2013-05-22 02:25:00,
2013-05-21 19:30:00,50.1,47.9,29.74,NW,304,0.0,0.0,92,0.06,,---,0.37,35.00,VWS V14.01,2013-05-22 02:30:00,
2013-05-21 19:35:00,50.2,47.7,29.74,NW,304,0.0,0.0,91,0.05,,---,0.37,44.00,VWS V14.01,2013-05-22 02:35:00,
2013-05-21 19:40:00,50.3,48.1,29.75,NW,304,0.0,0.0,92,0.05,,---,0.37,40.00,VWS V14.01,2013-05-22 02:40:00,
2013-05-21 19:45:00,50.3,48.1,29.75,NW,304,0.0,0.0,92,0.05,,---,0.37,39.00,VWS V14.01,2013-05-22 02:45:00,
2013-05-21 19:50:00,50.4,48.2,29.75,South,178,0.0,1.0,92,0.05,,---,0.37,25.00,VWS V14.01,2013-05-22 02:50:00,
2013-05-21 19:55:00,50.1,47.0,29.75,SSW,210,1.0,5.0,89,0.03,,---,0.37,18.00,VWS V14.01,2013-05-22 02:55:00,
2013-05-21 20:00:00,49.8,46.7,29.75,SSW,208,0.0,5.0,89,0.01,,---,0.37,18.00,VWS V14.01,2013-05-22 03:00:00,
2013-05-21 20:05:00,49.5,46.7,29.76,West,280,1.0,2.0,90,0.00,,---,0.37,25.00,VWS V14.01,2013-05-22 03:05:00,
2013-05-21 20:10:00,49.1,46.0,29.76,SSW,194,3.0,5.0,89,0.00,,---,0.37,11.00,VWS V14.01,2013-05-22 03:10:00,
2013-05-21 20:15:00,48.8,46.0,29.76,West,263,3.0,5.0,90,0.00,,---,0.37,9.00,VWS V14.01,2013-05-22 03:15:00,
2013-05-21 20:20:00,48.3,44.9,29.76,West,276,0.0,8.0,88,0.00,,---,0.37,5.00,VWS V14.01,2013-05-22 03:20:00,
2013-05-21 20:25:00,48.0,44.6,29.76,SW,219,2.0,6.0,88,0.00,,---,0.37,5.00,VWS V14.01,2013-05-22 03:25:00,
2013-05-21 20:30:00,47.6,44.2,29.76,WSW,248,0.0,7.0,88,0.00,,---,0.37,0.00,VWS V14.01,2013-05-22 03:30:00,
2013-05-21 20:35:00,47.3,43.9,29.77,South,191,2.0,8.0,88,0.00,,---,0.37,0.00,VWS V14.01,2013-05-22 03:35:00,
2013-05-21 20:40:00,47.0,43.9,29.77,South,185,0.0,8.0,89,0.00,,---,0.37,0.00,VWS V14.01,2013-05-22 03:40:00,
2013-05-21 20:45:00,46.8,44.6,29.77,South,175,4.0,8.0,92,0.00,,---,0.37,0.00,VWS V14.01,2013-05-22 03:45:00,
2013-05-21 20:50:00,46.7,43.3,29.77,South,172,10.0,10.0,88,0.00,,---,0.37,0.00,VWS V14.01,2013-05-22 03:50:00,
2013-05-21 20:55:00,46.6,43.2,29.77,SSE,153,0.0,10.0,88,0.00,,---,0.37,0.00,VWS V14.01,2013-05-22 03:55:00,
2013-05-21 21:00:00,46.7,43.6,29.78,South,182,3.0,7.0,89,0.00,,---,0.37,0.00,VWS V14.01,2013-05-22 04:00:00,
2013-05-21 21:01:00,46.6,43.2,29.78,WSW,256,2.0,7.0,88,0.00,,---,0.37,0.00,VWS V14.01,2013-05-22 04:01:00,
2013-05-21 21:06:00,46.6,43.2,29.78,South,182,2.0,7.0,88,0.00,,---,0.37,0.00,VWS V14.01,2013-05-22 04:06:00,
2013-05-21 21:11:00,46.6,43.5,29.78,SSE,148,1.0,5.0,89,0.00,,---,0.37,0.00,VWS V14.01,2013-05-22 04:11:00,
2013-05-21 21:16:00,46.5,43.1,29.78,SSW,192,2.0,5.0,88,0.00,,---,0.37,0.00,VWS V14.01,2013-05-22 04:16:00,
2013-05-21 21:21:00,46.5,43.4,29.78,SW,227,2.0,6.0,89,0.00,,---,0.37,0.00,VWS V14.01,2013-05-22 04:21:00,
2013-05-21 21:26:00,46.5,43.1,29.78,SSW,198,3.0,6.0,88,0.00,,---,0.37,0.00,VWS V14.01,2013-05-22 04:26:00,
2013-05-21 21:32:00,46.4,43.0,29.79,SSE,150,6.0,6.0,88,0.00,,---,0.37,0.00,VWS V14.01,2013-05-22 04:32:00,
2013-05-21 21:36:00,46.4,43.0,29.79,South,182,0.0,7.0,88,0.00,,---,0.37,0.00,VWS V14.01,2013-05-22 04:36:00,
2013-05-21 21:41:00,46.3,42.7,29.79,ESE,123,2.0,7.0,87,0.00,,---,0.37,0.00,VWS V14.01,2013-05-22 04:41:00,
2013-05-21 21:46:00,46.3,42.3,29.79,South,190,3.0,5.0,86,0.00,,---,0.37,0.00,VWS V14.01,2013-05-22 04:46:00,
2013-05-21 21:51:00,46.3,42.7,29.79,SW,217,2.0,6.0,87,0.00,,---,0.37,0.00,VWS V14.01,2013-05-22 04:51:00,
2013-05-21 21:56:00,46.3,42.7,29.79,SSE,155,8.0,8.0,87,0.00,,---,0.37,0.00,VWS V14.01,2013-05-22 04:56:00,
2013-05-21 22:01:00,46.3,42.7,29.79,SSW,194,2.0,8.0,87,0.00,,---,0.37,0.00,VWS V14.01,2013-05-22 05:01:00,
2013-05-21 22:06:00,46.2,42.5,29.79,South,188,1.0,5.0,87,0.00,,---,0.37,0.00,VWS V14.01,2013-05-22 05:06:00,
2013-05-21 22:11:00,46.2,42.8,29.79,SE,138,0.0,4.0,88,0.00,,---,0.37,0.00,VWS V14.01,2013-05-22 05:11:00,
2013-05-21 22:16:00,46.1,42.8,29.79,East,86,0.0,4.0,88,0.00,,---,0.37,0.00,VWS V14.01,2013-05-22 05:16:00,
2013-05-21 22:21:00,46.1,42.8,29.80,WNW,297,4.0,4.0,88,0.00,,---,0.37,0.00,VWS V14.01,2013-05-22 05:21:00,
2013-05-21 22:26:00,46.0,43.0,29.80,South,180,0.0,4.0,89,0.00,,---,0.37,0.00,VWS V14.01,2013-05-22 05:26:00,
2013-05-21 22:31:00,46.0,43.0,29.80,WSW,253,1.0,5.0,89,0.00,,---,0.37,0.00,VWS V14.01,2013-05-22 05:31:00,
2013-05-21 22:36:00,45.9,43.1,29.80,West,263,2.0,4.0,90,0.00,,---,0.37,0.00,VWS V14.01,2013-05-22 05:36:00,
2013-05-21 22:41:00,45.8,43.0,29.79,SE,134,0.0,5.0,90,0.00,,---,0.37,0.00,VWS V14.01,2013-05-22 05:41:00,
2013-05-21 22:46:00,45.7,42.9,29.79,SE,139,0.0,4.0,90,0.00,,---,0.37,0.00,VWS V14.01,2013-05-22 05:46:00,
2013-05-21 22:52:00,45.6,42.8,29.79,SE,138,0.0,4.0,90,0.00,,---,0.37,0.00,VWS V14.01,2013-05-22 05:52:00,
2013-05-21 22:57:00,45.4,42.9,29.79,SE,132,0.0,6.0,91,0.00,,---,0.37,0.00,VWS V14.01,2013-05-22 05:57:00,
2013-05-21 23:02:00,45.3,42.8,29.79,ESE,123,0.0,1.0,91,0.00,,---,0.37,0.00,VWS V14.01,2013-05-22 06:02:00,
2013-05-21 23:07:00,45.2,42.7,29.79,East,79,0.0,7.0,91,0.00,,---,0.37,0.00,VWS V14.01,2013-05-22 06:07:00,
2013-05-21 23:12:00,45.0,42.5,29.79,WSW,248,0.0,7.0,91,0.00,,---,0.37,0.00,VWS V14.01,2013-05-22 06:12:00,
2013-05-21 23:17:00,45.0,42.5,29.79,WSW,250,1.0,6.0,91,0.00,,---,0.37,0.00,VWS V14.01,2013-05-22 06:17:00,
2013-05-21 23:22:00,45.0,42.5,29.79,South,186,0.0,6.0,91,0.00,,---,0.37,0.00,VWS V14.01,2013-05-22 06:22:00,
2013-05-21 23:27:00,45.0,42.8,29.80,South,185,0.0,2.0,92,0.00,,---,0.37,0.00,VWS V14.01,2013-05-22 06:27:00,
2013-05-21 23:32:00,45.0,42.8,29.80,South,179,0.0,1.0,92,0.00,,---,0.37,0.00,VWS V14.01,2013-05-22 06:32:00,
2013-05-21 23:37:00,45.0,43.1,29.80,South,179,0.0,1.0,93,0.00,,---,0.37,0.00,VWS V14.01,2013-05-22 06:37:00,
2013-05-21 23:42:00,45.0,43.1,29.80,South,179,0.0,0.0,93,0.00,,---,0.37,0.00,VWS V14.01,2013-05-22 06:42:00,
2013-05-21 23:47:00,45.0,43.1,29.80,WSW,254,0.0,3.0,93,0.00,,---,0.37,0.00,VWS V14.01,2013-05-22 06:47:00,
2013-05-21 23:52:00,44.9,43.0,29.80,SSW,192,0.0,3.0,93,0.00,,---,0.37,0.00,VWS V14.01,2013-05-22 06:52:00,
2013-05-21 23:57:00,44.9,43.0,29.80,South,172,1.0,6.0,93,0.00,,---,0.37,0.00,VWS V14.01,2013-05-22 06:57:00,